Time;durP1;ratioP1;P1;durP2;ratioP2;P2;SDS_P1;SDS_P2;PMS_P1;PMS_P2;Temp;Humidity;BMP_temperature;BMP_pressure;BME280_temperature;BME280_humidity;BME280_pressure;Samples;Min_cycle;Max_cycle;Signal;HPM_P1;HPM_P2
2023/05/08 00:00:18;;;;;;;16.43;13.53;;;16.00;99.90;;;;;;5071049;28;20399;-75
2023/05/08 00:02:43;;;;;;;23.60;15.13;;;15.90;99.90;;;;;;5052348;28;20445;-73
2023/05/08 00:05:09;;;;;;;18.67;14.70;;;15.70;99.90;;;;;;5071158;28;20422;-74
2023/05/08 00:07:36;;;;;;;20.05;16.33;;;15.50;99.90;;;;;;5070876;28;20391;-74
2023/05/08 00:10:04;;;;;;;19.60;16.85;;;15.40;99.90;;;;;;5071071;28;20904;-74
2023/05/08 00:12:29;;;;;;;17.52;13.80;;;15.50;99.90;;;;;;5070307;28;20407;-74
2023/05/08 00:14:55;;;;;;;19.52;15.05;;;15.40;99.90;;;;;;5071438;28;20718;-74
2023/05/08 00:17:21;;;;;;;19.40;15.30;;;15.30;99.90;;;;;;5053439;28;20394;-74
2023/05/08 00:19:47;;;;;;;19.90;14.00;;;15.30;99.90;;;;;;5071228;28;20401;-75
2023/05/08 00:22:12;;;;;;;22.38;14.70;;;15.20;99.90;;;;;;5052490;28;20400;-74
2023/05/08 00:24:38;;;;;;;19.80;14.50;;;15.10;99.90;;;;;;5071207;28;20876;-74
2023/05/08 00:27:03;;;;;;;17.10;13.00;;;15.10;99.90;;;;;;5052982;28;20395;-74
2023/05/08 00:29:29;;;;;;;17.90;12.95;;;15.10;99.90;;;;;;5071250;28;20399;-74
2023/05/08 00:31:55;;;;;;;19.83;13.75;;;15.00;99.90;;;;;;5070081;28;20429;-74
2023/05/08 00:34:20;;;;;;;18.55;14.48;;;15.00;99.90;;;;;;5072490;28;20379;-75
2023/05/08 00:36:46;;;;;;;17.03;14.30;;;15.00;99.90;;;;;;5071741;28;20398;-75
2023/05/08 00:39:12;;;;;;;16.70;14.83;;;15.10;99.90;;;;;;5074462;28;20488;-74
2023/05/08 00:41:38;;;;;;;22.90;16.17;;;15.10;99.90;;;;;;5073399;28;20384;-74
2023/05/08 00:44:03;;;;;;;20.80;15.17;;;15.00;99.90;;;;;;5076933;28;20395;-74
2023/05/08 00:46:29;;;;;;;20.97;15.40;;;14.90;99.90;;;;;;5077165;28;20406;-74
2023/05/08 00:48:56;;;;;;;22.88;16.20;;;14.90;99.90;;;;;;5076418;28;20775;-74
2023/05/08 00:51:22;;;;;;;18.67;14.75;;;14.90;99.90;;;;;;5077178;28;20399;-74
2023/05/08 00:53:48;;;;;;;19.83;15.88;;;14.80;99.90;;;;;;5076901;28;20390;-74
2023/05/08 00:56:15;;;;;;;18.60;14.30;;;14.90;99.90;;;;;;5075753;28;20530;-74
2023/05/08 00:58:42;;;;;;;19.17;14.30;;;14.90;99.90;;;;;;5074914;28;20376;-74
2023/05/08 01:01:08;;;;;;;18.38;14.88;;;15.00;99.90;;;;;;5073727;28;20380;-74
2023/05/08 01:03:35;;;;;;;18.90;13.68;;;15.10;99.90;;;;;;5074599;28;20407;-74
2023/05/08 01:06:05;;;;;;;16.75;13.52;;;15.00;99.90;;;;;;5074183;28;20380;-74
2023/05/08 01:08:31;;;;;;;17.48;13.73;;;14.90;99.90;;;;;;5074406;28;20772;-74
2023/05/08 01:11:27;;;;;;;18.20;13.20;;;14.80;99.90;;;;;;5076412;28;20448;-74
2023/05/08 01:14:10;;;;;;;18.67;14.00;;;14.80;99.90;;;;;;5073912;28;20383;-74
2023/05/08 01:16:46;;;;;;;18.85;15.30;;;14.70;99.90;;;;;;5073517;28;20431;-74
2023/05/08 01:19:36;;;;;;;18.33;14.20;;;14.80;99.90;;;;;;5073540;28;21032;-74
2023/05/08 01:22:39;;;;;;;16.33;13.90;;;14.80;99.90;;;;;;5054600;28;20479;-74
2023/05/08 01:25:14;;;;;;;18.67;14.65;;;14.70;99.90;;;;;;5073503;28;20495;-74
2023/05/08 01:27:58;;;;;;;16.70;14.23;;;14.60;99.90;;;;;;5073348;28;20387;-74
2023/05/08 01:30:57;;;;;;;19.33;14.60;;;14.60;99.90;;;;;;5073753;28;20437;-74
2023/05/08 01:33:29;;;;;;;17.05;14.60;;;14.60;99.90;;;;;;5073110;28;20403;-74
2023/05/08 01:36:32;;;;;;;18.88;15.40;;;14.50;99.90;;;;;;5073186;28;20380;-74
2023/05/08 01:39:16;;;;;;;21.63;14.60;;;14.50;99.90;;;;;;5073072;28;20433;-74
2023/05/08 01:41:49;;;;;;;24.47;16.43;;;14.60;99.90;;;;;;5072418;28;20383;-75
2023/05/08 01:44:18;;;;;;;18.55;15.00;;;14.70;99.90;;;;;;5072607;28;20375;-73
2023/05/08 01:46:48;;;;;;;19.35;13.98;;;14.70;99.90;;;;;;5072794;28;20379;-75
2023/05/08 01:49:33;;;;;;;18.92;15.30;;;14.60;99.90;;;;;;5073271;28;20462;-75
2023/05/08 01:52:04;;;;;;;21.98;16.08;;;14.60;99.90;;;;;;5074191;28;20494;-75
2023/05/08 01:54:40;;;;;;;19.13;15.73;;;14.60;99.90;;;;;;5073240;28;20490;-73
2023/05/08 01:57:09;;;;;;;22.85;16.17;;;14.60;99.90;;;;;;5072733;28;20406;-74
2023/05/08 01:59:37;;;;;;;21.75;16.83;;;14.50;99.90;;;;;;5072798;28;20942;-74
2023/05/08 02:02:04;;;;;;;22.27;17.15;;;14.50;99.90;;;;;;5072040;28;20388;-74
2023/05/08 02:04:33;;;;;;;19.23;15.90;;;14.50;99.90;;;;;;5072989;28;20389;-74
2023/05/08 02:06:59;;;;;;;21.25;16.63;;;14.40;99.90;;;;;;5072901;28;20380;-73
2023/05/08 02:09:28;;;;;;;24.25;17.77;;;14.50;99.90;;;;;;5072970;28;20383;-74
2023/05/08 02:11:55;;;;;;;20.40;16.00;;;14.50;99.90;;;;;;5054468;28;20486;-74
2023/05/08 02:14:21;;;;;;;22.23;16.88;;;14.50;99.90;;;;;;5073124;28;20415;-74
2023/05/08 02:16:50;;;;;;;21.90;17.00;;;14.50;99.90;;;;;;5072986;28;20384;-74
2023/05/08 02:19:17;;;;;;;21.60;16.27;;;14.60;99.90;;;;;;5072732;28;20457;-73
2023/05/08 02:21:44;;;;;;;22.02;15.55;;;14.60;99.90;;;;;;5071762;28;20814;-73
2023/05/08 02:24:12;;;;;;;23.80;16.20;;;14.60;99.90;;;;;;5072338;28;20380;-73
2023/05/08 02:26:40;;;;;;;24.45;15.80;;;14.70;99.90;;;;;;5071995;28;20388;-74
2023/05/08 02:29:06;;;;;;;18.55;14.90;;;14.80;99.90;;;;;;5072336;28;20787;-73
2023/05/08 02:31:33;;;;;;;20.80;15.35;;;14.80;99.90;;;;;;5071311;28;20407;-73
2023/05/08 02:33:59;;;;;;;16.75;14.07;;;14.90;99.90;;;;;;5054188;28;20395;-74
2023/05/08 02:36:27;;;;;;;22.38;15.55;;;14.90;99.90;;;;;;5071930;28;20455;-72
2023/05/08 02:38:54;;;;;;;21.60;15.60;;;14.90;99.90;;;;;;5071729;28;20752;-73
2023/05/08 02:41:21;;;;;;;19.02;15.65;;;14.90;99.90;;;;;;5071280;28;20386;-74
2023/05/08 02:43:48;;;;;;;21.20;14.48;;;15.00;99.90;;;;;;5072188;28;20379;-74
2023/05/08 02:46:19;;;;;;;18.75;15.27;;;14.90;99.90;;;;;;5071963;28;20939;-74
2023/05/08 02:48:57;;;;;;;18.10;14.52;;;14.80;99.90;;;;;;5071490;28;20419;-74
2023/05/08 02:51:55;;;;;;;18.92;14.77;;;14.90;99.90;;;;;;5070841;28;20435;-74
2023/05/08 02:54:42;;;;;;;23.53;15.47;;;14.80;99.90;;;;;;5071799;28;20383;-73
2023/05/08 02:57:23;;;;;;;17.77;14.53;;;14.80;99.90;;;;;;5071527;28;20376;-73
2023/05/08 03:00:02;;;;;;;22.83;15.10;;;14.70;99.90;;;;;;5070777;28;20383;-73
2023/05/08 03:02:34;;;;;;;20.27;14.90;;;14.60;99.90;;;;;;5070663;28;20380;-73
2023/05/08 03:05:07;;;;;;;21.37;15.70;;;14.50;99.90;;;;;;5071108;28;20391;-74
2023/05/08 03:07:40;;;;;;;21.10;15.10;;;14.40;99.90;;;;;;5071303;28;20380;-73
2023/05/08 03:10:09;;;;;;;20.67;14.90;;;14.40;99.90;;;;;;5071242;28;20392;-73
2023/05/08 03:12:39;;;;;;;19.10;14.73;;;14.40;99.90;;;;;;5070371;28;20410;-73
2023/05/08 03:15:15;;;;;;;20.30;16.17;;;14.30;99.90;;;;;;5053980;28;20765;-74
2023/05/08 03:17:43;;;;;;;17.35;14.20;;;14.30;99.90;;;;;;5071057;28;20376;-73
2023/05/08 03:20:13;;;;;;;21.55;14.90;;;14.30;99.90;;;;;;5071251;28;20738;-73
2023/05/08 03:22:40;;;;;;;22.90;16.05;;;14.20;99.90;;;;;;5072971;22;20440;-72
2023/05/08 03:25:08;;;;;;;16.88;14.75;;;14.30;99.90;;;;;;5051273;28;20385;-71
2023/05/08 03:27:35;;;;;;;20.40;14.67;;;14.30;99.90;;;;;;5051112;28;20727;-70
2023/05/08 03:30:02;;;;;;;21.27;15.95;;;14.30;99.90;;;;;;5051590;28;20373;-72
2023/05/08 03:32:28;;;;;;;17.13;14.60;;;14.30;99.90;;;;;;5051274;28;20396;-71
2023/05/08 03:34:58;;;;;;;17.08;14.48;;;14.20;99.90;;;;;;5051589;28;20390;-72
2023/05/08 03:37:25;;;;;;;20.07;15.53;;;14.10;99.90;;;;;;5051291;28;20881;-71
2023/05/08 03:39:51;;;;;;;24.23;15.85;;;14.10;99.90;;;;;;5051199;28;20461;-74
2023/05/08 03:42:20;;;;;;;21.00;16.60;;;14.00;99.90;;;;;;5050640;28;20469;-72
2023/05/08 03:44:53;;;;;;;21.05;15.95;;;14.00;99.90;;;;;;5051053;28;20385;-72
2023/05/08 03:47:20;;;;;;;20.25;16.00;;;14.00;99.90;;;;;;5051254;28;20464;-73
2023/05/08 03:49:47;;;;;;;24.80;16.75;;;14.00;99.90;;;;;;5052150;28;20385;-73
2023/05/08 03:52:14;;;;;;;20.58;15.82;;;14.00;99.90;;;;;;5038919;28;20408;-73
2023/05/08 03:54:40;;;;;;;21.85;16.27;;;14.00;99.90;;;;;;5071407;28;20378;-73
2023/05/08 03:57:05;;;;;;;24.65;16.50;;;14.10;99.90;;;;;;5061280;28;20388;-72
2023/05/08 03:59:43;;;;;;;27.70;17.77;;;14.10;99.90;;;;;;5052158;28;20381;-72
2023/05/08 04:02:24;;;;;;;20.80;15.63;;;14.10;99.90;;;;;;5050553;28;20812;-72
2023/05/08 04:04:58;;;;;;;20.30;15.60;;;14.10;99.90;;;;;;5051688;28;20745;-72
2023/05/08 04:07:31;;;;;;;22.60;16.57;;;14.20;99.90;;;;;;5035994;28;20402;-72
2023/05/08 04:10:03;;;;;;;21.52;15.70;;;14.20;99.90;;;;;;5051906;28;20391;-72
2023/05/08 04:12:31;;;;;;;22.77;16.33;;;14.20;99.90;;;;;;5035336;28;20427;-72
2023/05/08 04:15:09;;;;;;;22.97;16.20;;;14.30;99.90;;;;;;5054911;28;20472;-72
2023/05/08 04:17:37;;;;;;;20.40;15.33;;;14.40;99.90;;;;;;5054832;28;20385;-72
2023/05/08 04:20:06;;;;;;;24.95;15.35;;;14.40;99.90;;;;;;5054827;28;20420;-71
2023/05/08 04:22:34;;;;;;;21.60;16.30;;;14.50;99.90;;;;;;5053982;28;20801;-72
2023/05/08 04:25:05;;;;;;;21.75;15.93;;;14.50;99.90;;;;;;5054994;28;20393;-72
2023/05/08 04:27:31;;;;;;;19.40;14.90;;;14.50;99.90;;;;;;5054669;28;20377;-71
2023/05/08 04:29:57;;;;;;;20.80;15.73;;;14.50;99.90;;;;;;5055267;28;20412;-72
2023/05/08 04:32:23;;;;;;;23.07;16.00;;;14.50;99.90;;;;;;5054698;28;20404;-72
2023/05/08 04:34:49;;;;;;;20.17;15.70;;;14.70;99.90;;;;;;5054836;28;20382;-72
2023/05/08 04:37:26;;;;;;;21.38;15.07;;;14.70;99.90;;;;;;5055016;28;20381;-72
2023/05/08 04:39:52;;;;;;;22.08;15.55;;;14.70;99.90;;;;;;5055162;28;20378;-70
2023/05/08 04:42:18;;;;;;;19.02;15.30;;;14.80;99.90;;;;;;5053991;28;20395;-72
2023/05/08 04:44:44;;;;;;;18.10;15.15;;;14.90;99.90;;;;;;5037084;28;20385;-71
2023/05/08 04:47:09;;;;;;;18.50;14.10;;;14.90;99.90;;;;;;5059627;28;20476;-70
2023/05/08 04:49:35;;;;;;;20.05;14.43;;;15.00;99.90;;;;;;5066175;28;20381;-71
2023/05/08 04:52:01;;;;;;;23.20;14.40;;;15.00;99.90;;;;;;5070103;28;20401;-70
2023/05/08 04:54:26;;;;;;;17.70;14.40;;;15.10;99.90;;;;;;5067690;28;20407;-73
2023/05/08 04:56:52;;;;;;;19.42;15.07;;;15.10;99.90;;;;;;5055060;28;20389;-72
2023/05/08 04:59:17;;;;;;;21.90;14.60;;;15.10;99.90;;;;;;5054186;28;20377;-72
2023/05/08 05:01:45;;;;;;;19.67;14.37;;;15.20;99.90;;;;;;5053152;28;20387;-72
2023/05/08 05:04:11;;;;;;;18.80;13.73;;;15.30;99.90;;;;;;5036074;28;20459;-71
2023/05/08 05:06:36;;;;;;;19.93;14.30;;;15.30;99.90;;;;;;5057299;28;20870;-71
2023/05/08 05:09:03;;;;;;;19.05;13.77;;;15.40;99.90;;;;;;5054135;28;20389;-72
2023/05/08 05:11:28;;;;;;;16.80;13.40;;;15.40;99.90;;;;;;5053510;28;20488;-72
2023/05/08 05:13:54;;;;;;;18.93;13.80;;;15.50;99.90;;;;;;5053793;28;20421;-72
2023/05/08 05:16:19;;;;;;;17.55;13.60;;;15.50;99.90;;;;;;5036177;28;20395;-72
2023/05/08 05:18:45;;;;;;;16.30;13.40;;;15.60;99.90;;;;;;5036846;28;20393;-72
2023/05/08 05:21:10;;;;;;;19.53;14.30;;;15.60;99.90;;;;;;5053453;28;20385;-70
2023/05/08 05:23:36;;;;;;;16.77;13.93;;;15.60;99.90;;;;;;5053307;28;20398;-72
2023/05/08 05:26:01;;;;;;;20.63;14.50;;;15.70;99.90;;;;;;5053870;28;20390;-71
2023/05/08 05:28:27;;;;;;;19.43;14.73;;;15.70;99.90;;;;;;5053901;28;20381;-73
2023/05/08 05:30:52;;;;;;;18.20;14.13;;;15.70;99.90;;;;;;5053097;28;20471;-71
2023/05/08 05:33:18;;;;;;;18.65;14.15;;;15.80;99.90;;;;;;5053698;28;20404;-74
2023/05/08 05:35:44;;;;;;;18.98;14.00;;;15.80;99.90;;;;;;5053716;28;20436;-72
2023/05/08 05:38:10;;;;;;;18.30;14.97;;;15.90;99.90;;;;;;5053740;28;20937;-72
2023/05/08 05:40:36;;;;;;;16.55;14.30;;;16.00;99.90;;;;;;5053086;28;20451;-74
2023/05/08 05:43:01;;;;;;;22.75;15.55;;;16.00;99.90;;;;;;5036225;28;20386;-73
2023/05/08 05:45:27;;;;;;;20.30;14.53;;;16.10;99.30;;;;;;5053268;28;20439;-71
2023/05/08 05:47:52;;;;;;;19.07;14.50;;;16.20;95.70;;;;;;5054517;28;20454;-73
2023/05/08 05:50:20;;;;;;;20.20;14.95;;;16.30;94.00;;;;;;5053884;28;20912;-71
2023/05/08 05:52:45;;;;;;;18.00;14.82;;;16.30;93.50;;;;;;5052541;28;20544;-72
2023/05/08 05:55:11;;;;;;;18.60;14.30;;;16.30;92.50;;;;;;5053480;28;20413;-72
2023/05/08 05:57:37;;;;;;;18.50;14.67;;;16.50;89.90;;;;;;5035282;28;20770;-71
2023/05/08 06:00:04;;;;;;;19.00;14.40;;;16.50;89.30;;;;;;5053522;28;20680;-73
2023/05/08 06:02:32;;;;;;;18.65;14.77;;;16.50;87.80;;;;;;5052960;28;20461;-72
2023/05/08 06:04:58;;;;;;;20.63;15.15;;;16.70;86.40;;;;;;5053513;28;20515;-70
2023/05/08 06:07:24;;;;;;;19.85;14.63;;;16.70;86.10;;;;;;5053766;28;20421;-72
2023/05/08 06:09:50;;;;;;;18.30;14.30;;;16.80;84.40;;;;;;5054246;28;20451;-71
2023/05/08 06:12:17;;;;;;;22.40;15.05;;;16.80;83.20;;;;;;5037084;28;20397;-73
2023/05/08 06:14:42;;;;;;;18.30;14.73;;;16.90;81.80;;;;;;5055254;28;20385;-72
2023/05/08 06:17:08;;;;;;;18.58;14.82;;;17.00;81.30;;;;;;5054632;28;20389;-73
2023/05/08 06:19:33;;;;;;;20.67;14.50;;;17.10;79.80;;;;;;5053235;28;20874;-72
2023/05/08 06:21:59;;;;;;;19.27;15.07;;;17.30;76.90;;;;;;5052221;28;21109;-72
2023/05/08 06:24:25;;;;;;;19.15;13.98;;;17.30;76.10;;;;;;5052932;28;20373;-71
2023/05/08 06:26:50;;;;;;;21.97;14.80;;;17.20;75.50;;;;;;5053394;28;20381;-73
2023/05/08 06:29:16;;;;;;;18.70;14.20;;;17.20;77.20;;;;;;5053360;28;20455;-73
2023/05/08 06:31:41;;;;;;;17.10;13.80;;;17.20;75.00;;;;;;5051914;28;20419;-73
2023/05/08 06:34:08;;;;;;;19.95;15.25;;;17.30;74.90;;;;;;5052253;28;20481;-73
2023/05/08 06:36:33;;;;;;;21.05;15.45;;;17.30;76.60;;;;;;5034208;28;20389;-72
2023/05/08 06:38:59;;;;;;;19.20;14.30;;;17.30;76.00;;;;;;5052576;28;20378;-72
2023/05/08 06:41:25;;;;;;;17.67;14.33;;;17.20;76.80;;;;;;5051885;28;20390;-71
2023/05/08 06:43:50;;;;;;;20.80;13.90;;;17.20;76.90;;;;;;5052361;28;20382;-71
2023/05/08 06:46:16;;;;;;;17.87;13.60;;;17.10;76.30;;;;;;5052776;28;20380;-72
2023/05/08 06:48:41;;;;;;;21.55;15.13;;;17.20;75.90;;;;;;5052789;28;20405;-73
2023/05/08 06:51:07;;;;;;;18.50;12.40;;;17.30;76.30;;;;;;5051231;28;20479;-72
2023/05/08 06:53:32;;;;;;;18.03;12.80;;;17.50;74.50;;;;;;5051765;28;20464;-72
2023/05/08 06:55:58;;;;;;;17.20;13.73;;;17.60;72.60;;;;;;5052653;28;20423;-72
2023/05/08 06:58:23;;;;;;;18.87;13.43;;;17.50;71.70;;;;;;5034175;28;20416;-71
2023/05/08 07:00:49;;;;;;;17.90;13.50;;;17.50;72.00;;;;;;5051667;28;20385;-71
2023/05/08 07:03:15;;;;;;;17.33;12.60;;;17.60;71.50;;;;;;5051603;28;20400;-73
2023/05/08 07:05:40;;;;;;;19.15;13.88;;;17.60;70.30;;;;;;5051859;28;20385;-74
2023/05/08 07:08:06;;;;;;;19.23;13.33;;;17.70;70.50;;;;;;5051477;28;20909;-73
2023/05/08 07:10:31;;;;;;;15.20;13.47;;;17.70;71.80;;;;;;5051871;28;20803;-73
2023/05/08 07:12:57;;;;;;;16.98;13.45;;;17.70;71.30;;;;;;5032869;28;20413;-74
2023/05/08 07:15:23;;;;;;;17.17;14.17;;;17.60;71.70;;;;;;5051481;28;20378;-72
2023/05/08 07:17:48;;;;;;;15.70;12.80;;;17.60;72.80;;;;;;5050772;28;20397;-73
2023/05/08 07:20:14;;;;;;;17.65;14.05;;;17.60;72.40;;;;;;5051933;28;20804;-75
2023/05/08 07:22:39;;;;;;;19.25;14.38;;;17.60;71.70;;;;;;5056777;28;20480;-73
2023/05/08 07:25:05;;;;;;;19.27;14.10;;;17.80;72.70;;;;;;5049538;28;20393;-75
2023/05/08 07:27:31;;;;;;;18.38;13.73;;;18.00;72.50;;;;;;5065624;28;20438;-74
2023/05/08 07:29:57;;;;;;;15.60;13.27;;;18.40;66.70;;;;;;5051118;28;20397;-74
2023/05/08 07:32:23;;;;;;;15.80;12.90;;;18.40;63.80;;;;;;5050557;28;20808;-75
2023/05/08 07:34:49;;;;;;;16.33;12.95;;;18.60;62.10;;;;;;5051286;28;20417;-73
2023/05/08 07:37:14;;;;;;;16.60;13.20;;;18.70;60.50;;;;;;5051544;28;20377;-74
2023/05/08 07:39:40;;;;;;;18.00;12.30;;;18.70;60.30;;;;;;5051864;28;20381;-74
2023/05/08 07:42:05;;;;;;;12.40;10.70;;;18.80;55.10;;;;;;5051148;28;20396;-72
2023/05/08 07:44:35;;;;;;;14.87;10.53;;;18.80;54.80;;;;;;5051357;28;20400;-71
2023/05/08 07:47:00;;;;;;;12.53;9.77;;;18.80;53.80;;;;;;5051749;28;20385;-73
2023/05/08 07:49:26;;;;;;;11.20;9.73;;;18.90;53.60;;;;;;5052340;28;20393;-73
2023/05/08 07:51:52;;;;;;;13.40;9.02;;;18.90;54.10;;;;;;5052151;28;20776;-74
2023/05/08 07:54:17;;;;;;;16.08;9.77;;;18.90;53.30;;;;;;5051408;28;20386;-71
2023/05/08 07:56:43;;;;;;;12.07;9.00;;;18.90;55.40;;;;;;5061122;28;20386;-71
2023/05/08 07:59:08;;;;;;;12.03;8.90;;;19.10;54.50;;;;;;5056069;28;20390;-71
2023/05/08 08:01:34;;;;;;;12.88;9.10;;;19.10;54.60;;;;;;5050745;28;20428;-71
2023/05/08 08:03:59;;;;;;;11.93;7.63;;;19.10;53.30;;;;;;5019031;28;20500;-71
2023/05/08 08:06:25;;;;;;;12.37;8.33;;;19.00;53.40;;;;;;5064772;28;20472;-71
2023/05/08 08:08:50;;;;;;;11.73;7.50;;;18.90;53.80;;;;;;5065172;28;20394;-79
2023/05/08 08:11:16;;;;;;;10.17;7.73;;;18.70;55.50;;;;;;5064207;28;20389;-72
2023/05/08 08:13:41;;;;;;;12.07;8.70;;;18.80;56.00;;;;;;5051634;28;20862;-71
2023/05/08 08:16:07;;;;;;;11.40;9.37;;;18.80;56.70;;;;;;5033875;28;20393;-70
2023/05/08 08:18:34;;;;;;;16.30;11.60;;;18.70;56.80;;;;;;5052662;28;20464;-74
2023/05/08 08:21:00;;;;;;;14.32;10.05;;;18.60;58.70;;;;;;5050404;28;20378;-72
2023/05/08 08:23:26;;;;;;;12.23;9.90;;;18.50;58.90;;;;;;5050788;28;20398;-74
2023/05/08 08:25:52;;;;;;;11.60;9.00;;;18.40;59.60;;;;;;5050532;28;20893;-74
2023/05/08 08:28:18;;;;;;;12.60;10.13;;;18.20;61.20;;;;;;5051945;28;20468;-72
2023/05/08 08:30:44;;;;;;;13.60;10.48;;;18.20;62.30;;;;;;5051094;28;20452;-72
2023/05/08 08:33:09;;;;;;;19.70;10.90;;;18.10;64.90;;;;;;5050445;28;20409;-73
2023/05/08 08:35:35;;;;;;;18.17;12.10;;;18.20;64.80;;;;;;5033385;28;20382;-71
2023/05/08 08:38:01;;;;;;;20.60;14.00;;;18.20;64.30;;;;;;5052210;28;20378;-72
2023/05/08 08:40:27;;;;;;;15.40;11.82;;;18.20;64.10;;;;;;5051073;28;20393;-72
2023/05/08 08:42:53;;;;;;;20.55;14.40;;;18.10;63.70;;;;;;5050191;28;20432;-73
2023/05/08 08:45:19;;;;;;;14.65;11.15;;;18.20;63.20;;;;;;5050441;28;20386;-73
2023/05/08 08:47:47;;;;;;;13.05;10.35;;;18.10;64.60;;;;;;5050485;28;20388;-72
2023/05/08 08:50:14;;;;;;;12.90;10.63;;;18.00;64.60;;;;;;5052210;28;20471;-72
2023/05/08 08:52:57;;;;;;;16.25;10.60;;;17.90;67.00;;;;;;5051221;28;20878;-72
2023/05/08 08:55:25;;;;;;;17.40;11.80;;;17.80;69.80;;;;;;5038412;28;20385;-72
2023/05/08 08:58:14;;;;;;;14.90;11.48;;;17.70;71.70;;;;;;5051192;28;20378;-72
2023/05/08 09:00:40;;;;;;;14.55;11.57;;;17.70;69.50;;;;;;5054992;28;20767;-71
2023/05/08 09:03:09;;;;;;;17.85;12.77;;;17.80;70.20;;;;;;5054792;28;20446;-72
2023/05/08 09:05:35;;;;;;;14.80;11.20;;;17.90;70.40;;;;;;5054726;28;20397;-71
2023/05/08 09:08:01;;;;;;;17.10;11.30;;;18.10;67.90;;;;;;5055254;28;20397;-72
2023/05/08 09:10:27;;;;;;;12.98;10.25;;;18.20;68.70;;;;;;5055011;28;20400;-72
2023/05/08 09:12:52;;;;;;;13.32;10.23;;;18.30;66.90;;;;;;5054474;28;20406;-73
2023/05/08 09:15:18;;;;;;;14.00;10.27;;;18.60;63.80;;;;;;5056231;28;20413;-72
2023/05/08 09:17:44;;;;;;;11.40;9.43;;;19.10;57.70;;;;;;5055042;28;20380;-72
2023/05/08 09:20:12;;;;;;;15.95;9.15;;;19.80;52.40;;;;;;5055829;28;20383;-73
2023/05/08 09:22:38;;;;;;;10.90;8.45;;;20.20;48.70;;;;;;5054401;28;20409;-71
2023/05/08 09:25:05;;;;;;;11.95;9.45;;;20.60;45.40;;;;;;5054227;28;20393;-73
2023/05/08 09:27:31;;;;;;;11.80;8.30;;;20.80;42.70;;;;;;5053816;28;20393;-70
2023/05/08 09:30:15;;;;;;;12.65;9.27;;;20.90;41.80;;;;;;5053532;28;20465;-72
2023/05/08 09:32:43;;;;;;;10.13;8.70;;;21.10;39.80;;;;;;5046354;28;20412;-74
2023/05/08 09:35:10;;;;;;;11.80;9.30;;;20.80;40.50;;;;;;5054493;28;20468;-74
2023/05/08 09:37:40;;;;;;;16.55;9.48;;;20.80;41.40;;;;;;5054046;28;20896;-75
2023/05/08 09:40:20;;;;;;;14.75;9.43;;;20.60;41.90;;;;;;5053972;28;20788;-75
2023/05/08 09:42:48;;;;;;;13.90;9.45;;;20.60;42.90;;;;;;5042884;28;20405;-74
2023/05/08 09:45:29;;;;;;;14.25;8.75;;;20.60;42.20;;;;;;5036926;28;20460;-75
2023/05/08 09:47:55;;;;;;;10.50;8.95;;;20.70;43.20;;;;;;5055267;28;20392;-74
2023/05/08 09:50:21;;;;;;;11.88;8.45;;;20.90;41.20;;;;;;5054621;28;20389;-74
2023/05/08 09:52:48;;;;;;;11.43;8.70;;;21.00;39.40;;;;;;5053814;28;20420;-73
2023/05/08 09:55:13;;;;;;;11.00;8.90;;;21.10;38.30;;;;;;5058073;28;20443;-75
2023/05/08 09:57:50;;;;;;;8.63;7.70;;;21.20;38.80;;;;;;5059419;28;20403;-75
2023/05/08 10:00:16;;;;;;;8.35;7.35;;;21.40;38.50;;;;;;5055483;28;20424;-73
2023/05/08 10:02:56;;;;;;;8.50;7.60;;;21.60;37.50;;;;;;5054828;28;20421;-73
2023/05/08 10:05:22;;;;;;;12.43;7.90;;;21.80;36.00;;;;;;5037803;28;20447;-74
2023/05/08 10:07:47;;;;;;;13.80;8.73;;;21.80;35.50;;;;;;5055829;28;20385;-74
2023/05/08 10:10:13;;;;;;;10.93;8.60;;;21.90;34.60;;;;;;5055266;28;20390;-74
2023/05/08 10:12:40;;;;;;;10.67;9.00;;;22.00;33.80;;;;;;5035897;28;20424;-74
2023/05/08 10:15:06;;;;;;;9.60;8.60;;;22.20;33.90;;;;;;5054124;28;20530;-73
2023/05/08 10:17:46;;;;;;;8.68;7.43;;;22.50;31.70;;;;;;5053083;28;20384;-73
2023/05/08 10:20:14;;;;;;;10.68;8.15;;;22.60;32.00;;;;;;5053377;28;20731;-74
2023/05/08 10:22:47;;;;;;;10.63;7.50;;;22.60;31.10;;;;;;5053832;28;20790;-73
2023/05/08 10:25:16;;;;;;;9.95;7.70;;;22.50;31.60;;;;;;5054264;28;20388;-74
2023/05/08 10:27:49;;;;;;;10.55;8.70;;;22.70;31.80;;;;;;5052171;28;20849;-73
2023/05/08 10:30:18;;;;;;;11.53;8.47;;;23.00;30.80;;;;;;5052845;28;20384;-74
2023/05/08 10:32:46;;;;;;;10.45;8.40;;;23.10;28.70;;;;;;5051294;28;20976;-74
2023/05/08 10:35:11;;;;;;;9.65;8.65;;;23.20;28.70;;;;;;5052049;28;20392;-74
2023/05/08 10:37:38;;;;;;;11.40;9.77;;;23.60;27.60;;;;;;5052176;28;20377;-73
2023/05/08 10:40:05;;;;;;;11.82;8.65;;;23.70;26.50;;;;;;5052267;28;20909;-73
2023/05/08 10:42:33;;;;;;;12.05;8.07;;;23.70;25.10;;;;;;5034257;28;20952;-74
2023/05/08 10:45:00;;;;;;;8.05;7.07;;;23.80;25.30;;;;;;5052917;28;20394;-75
2023/05/08 10:47:32;;;;;;;9.20;7.25;;;24.10;24.10;;;;;;5052880;28;20390;-74
2023/05/08 10:50:22;;;;;;;8.77;6.60;;;24.40;22.30;;;;;;5053117;28;20718;-75
2023/05/08 10:53:00;;;;;;;9.50;6.80;;;24.40;22.70;;;;;;5052017;28;20442;-74
2023/05/08 10:55:38;;;;;;;7.10;5.80;;;24.70;21.40;;;;;;5052552;28;20409;-74
2023/05/08 10:58:27;;;;;;;8.30;6.13;;;24.90;20.50;;;;;;5052132;28;20380;-74
2023/05/08 11:00:52;;;;;;;7.50;6.70;;;24.90;19.50;;;;;;5058415;28;20378;-74
2023/05/08 11:03:26;;;;;;;8.32;6.35;;;25.00;19.50;;;;;;5034420;28;21138;-74
2023/05/08 11:05:53;;;;;;;7.85;7.00;;;24.90;19.70;;;;;;5052838;28;20416;-75
2023/05/08 11:08:23;;;;;;;7.22;6.00;;;25.00;19.30;;;;;;5052459;28;20468;-75
2023/05/08 11:11:08;;;;;;;7.00;6.30;;;25.20;19.50;;;;;;5052692;28;20385;-74
2023/05/08 11:13:45;;;;;;;11.35;6.15;;;25.20;18.80;;;;;;5054176;28;20402;-73
2023/05/08 11:16:11;;;;;;;8.68;5.20;;;25.00;19.20;;;;;;5053581;28;20773;-74
2023/05/08 11:18:37;;;;;;;7.00;5.45;;;25.10;18.80;;;;;;5052135;28;20405;-74
2023/05/08 11:21:05;;;;;;;5.20;4.60;;;25.10;18.50;;;;;;5050498;28;20378;-75
2023/05/08 11:23:35;;;;;;;8.15;6.85;;;25.10;18.40;;;;;;5052230;28;20886;-73
2023/05/08 11:26:03;;;;;;;7.30;5.30;;;25.10;19.30;;;;;;5052907;28;20400;-76
2023/05/08 11:28:37;;;;;;;7.38;6.10;;;24.70;19.40;;;;;;5034412;28;20762;-75
2023/05/08 11:31:06;;;;;;;10.85;5.70;;;24.00;20.30;;;;;;5051271;28;20865;-75
2023/05/08 11:33:36;;;;;;;6.60;5.95;;;23.90;21.50;;;;;;5051722;28;20409;-74
2023/05/08 11:36:16;;;;;;;5.77;5.13;;;23.90;21.80;;;;;;5051565;28;20448;-74
2023/05/08 11:38:42;;;;;;;6.78;5.55;;;24.00;22.20;;;;;;5052096;28;20786;-75
2023/05/08 11:41:10;;;;;;;8.43;5.55;;;24.10;22.20;;;;;;5050835;28;20469;-73
2023/05/08 11:43:49;;;;;;;6.35;4.50;;;24.20;22.60;;;;;;5051195;28;20543;-73
2023/05/08 11:46:20;;;;;;;5.18;4.70;;;24.40;20.00;;;;;;5051374;28;20932;-75
2023/05/08 11:48:46;;;;;;;7.95;6.35;;;24.60;19.30;;;;;;5051161;28;20396;-75
2023/05/08 11:51:12;;;;;;;7.53;5.97;;;25.00;19.30;;;;;;5050414;28;21044;-74
2023/05/08 11:53:38;;;;;;;5.40;4.60;;;25.30;19.20;;;;;;5051375;28;20401;-75
2023/05/08 11:56:05;;;;;;;8.07;5.72;;;25.60;16.90;;;;;;5051474;28;20730;-72
2023/05/08 11:58:30;;;;;;;8.75;5.47;;;25.60;17.40;;;;;;5051418;28;20381;-73
2023/05/08 12:00:56;;;;;;;6.70;5.15;;;25.60;17.80;;;;;;5051239;28;20809;-73
2023/05/08 12:03:24;;;;;;;5.20;4.40;;;25.40;17.60;;;;;;5052267;28;20888;-73
2023/05/08 12:05:50;;;;;;;6.00;5.40;;;25.60;17.50;;;;;;5056245;28;20465;-73
2023/05/08 12:08:17;;;;;;;7.30;4.70;;;25.30;17.40;;;;;;5058361;28;20385;-73
2023/05/08 12:10:45;;;;;;;5.57;4.60;;;25.20;17.50;;;;;;5061069;28;20389;-73
2023/05/08 12:13:27;;;;;;;7.73;4.93;;;25.10;18.00;;;;;;5061854;28;20491;-73
2023/05/08 12:15:58;;;;;;;7.78;4.20;;;25.50;17.00;;;;;;5052423;28;20385;-73
2023/05/08 12:18:25;;;;;;;4.78;4.28;;;25.40;17.00;;;;;;5054806;28;20384;-73
2023/05/08 12:20:53;;;;;;;9.07;5.90;;;25.40;17.00;;;;;;5062699;28;20373;-75
2023/05/08 12:23:19;;;;;;;5.75;4.55;;;25.20;17.20;;;;;;5056301;28;20696;-73
2023/05/08 12:25:45;;;;;;;5.50;4.82;;;24.90;17.90;;;;;;5052125;28;20473;-74
2023/05/08 12:28:10;;;;;;;7.25;4.70;;;24.80;18.70;;;;;;5050876;28;20416;-73
2023/05/08 12:30:36;;;;;;;4.93;4.53;;;24.80;19.00;;;;;;5050187;28;20858;-71
2023/05/08 12:33:03;;;;;;;7.88;5.53;;;24.90;19.10;;;;;;5050183;28;20408;-72
2023/05/08 12:35:31;;;;;;;7.80;5.75;;;25.00;18.80;;;;;;5054075;28;20442;-71
2023/05/08 12:38:04;;;;;;;5.65;5.07;;;25.20;18.10;;;;;;5054161;28;20385;-73